This is the latest recevied weather packets stored in our database for station/object DK2OO-6. If no packets are shown the sender has not sent any weather packets the latest 10 day(s).
| Time | Temp. | Humidity | Pressure | Rain* | Wind** | Luminosity | Snow |
|---|---|---|---|---|---|---|---|
| 1788474974 | 16.67° C | 68% | 1015.9 hPa | 0 mm | - | - | - |
| 1788470157 | 17.22° C | 64% | 1015.6 hPa | 0 mm | - | - | - |
| 1788468957 | 17.22° C | 63% | 1015.8 hPa | 0 mm | - | - | - |
| 1788465934 | 18.33° C | 59% | 1015.7 hPa | 0 mm | - | - | - |
| 1788463515 | 19.44° C | 55% | 1015.6 hPa | 0 mm | - | - | - |
| 1788450827 | 23.33° C | 46% | 1014.7 hPa | 0 mm | - | - | - |
| 1788449621 | 23.89° C | 45% | 1014.8 hPa | 0 mm | - | - | - |
| 1788449020 | 23.89° C | 45% | 1014.9 hPa | 0 mm | - | - | - |
| 1788444176 | 23.89° C | 46% | 1015.2 hPa | 0 mm | - | - | - |
| 1788439348 | 23.33° C | 48% | 1015.7 hPa | 0 mm | - | - | - |
| 1788438746 | 23.33° C | 48% | 1015.7 hPa | 0 mm | - | - | - |
| 1788438147 | 23.89° C | 47% | 1015.8 hPa | 0 mm | - | - | - |
| 1788436930 | 23.89° C | 47% | 1015.8 hPa | 0 mm | - | - | - |
| 1788432095 | 23.89° C | 48% | 1016.1 hPa | 0 mm | - | - | - |
| 1788431492 | 23.33° C | 48% | 1016.2 hPa | 0 mm | - | - | - |
| 1788430884 | 23.33° C | 49% | 1016.3 hPa | 0 mm | - | - | - |
| 1788423035 | 17.78° C | - | - | 104.39 mm | - | - | - |
| 1788421813 | 16.67° C | 75% | 1016.5 hPa | 0 mm | - | - | - |
| 1788421211 | 16.67° C | 76% | 1016.5 hPa | 0 mm | - | - | - |
| 1788420602 | 16.11° C | 77% | 1016.6 hPa | 0 mm | - | - | - |
| 1788420002 | 16.11° C | 78% | 1016.3 hPa | 0 mm | - | - | - |
| 1788417590 | 13.33° C | 82% | 1016.4 hPa | 0 mm | - | - | - |
| 1788416984 | 13.33° C | 82% | 1016.5 hPa | 0 mm | - | - | - |
| 1788415779 | 12.22° C | 83% | 1016.6 hPa | 0 mm | - | - | - |
| 1788415172 | 12.22° C | 82% | 1016.5 hPa | 0 mm | - | - | - |
* Rain latest hour (hover to see other rain measurements)
** Current wind speed in m/s (hover to see current wind gust speed)